createdAt,value
2022-08-18T00:00:25.035Z,2.00
2022-08-18T00:03:27.208Z,2.00
2022-08-18T00:06:14.565Z,2.30
2022-08-18T00:09:00.866Z,1.83
2022-08-18T00:11:45.797Z,1.80
2022-08-18T00:14:28.828Z,2.05
2022-08-18T00:17:12.335Z,2.10
2022-08-18T00:19:55.351Z,2.28
2022-08-18T00:22:39.939Z,1.75
2022-08-18T00:25:24.809Z,1.50
2022-08-18T00:28:07.980Z,2.03
2022-08-18T00:30:54.033Z,2.35
2022-08-18T00:33:37.480Z,2.03
2022-08-18T00:36:20.567Z,2.10
2022-08-18T00:39:04.380Z,1.75
2022-08-18T00:41:48.849Z,1.60
2022-08-18T00:44:31.920Z,1.77
2022-08-18T00:47:14.947Z,1.42
2022-08-18T00:50:22.206Z,1.60
2022-08-18T00:53:18.546Z,1.98
2022-08-18T00:56:05.874Z,2.10
2022-08-18T00:58:53.671Z,1.50
2022-08-18T01:01:38.106Z,1.60
2022-08-18T01:04:25.322Z,1.50
2022-08-18T01:07:13.202Z,1.60
2022-08-18T01:09:59.565Z,1.75
2022-08-18T01:12:45.279Z,2.17
2022-08-18T01:15:31.027Z,2.05
2022-08-18T01:18:33.467Z,1.92
2022-08-18T01:21:41.143Z,1.58
2022-08-18T01:24:42.893Z,1.92
2022-08-18T01:27:30.415Z,1.80
2022-08-18T01:30:18.322Z,1.70
2022-08-18T01:33:01.477Z,1.77
2022-08-18T01:35:49.397Z,1.70
2022-08-18T01:38:32.808Z,1.80
2022-08-18T01:41:26.974Z,2.00
2022-08-18T01:44:13.154Z,1.88
2022-08-18T01:46:56.353Z,1.60
2022-08-18T01:49:43.255Z,1.50
2022-08-18T01:52:26.482Z,1.60
2022-08-18T01:55:10.573Z,1.58
2022-08-18T01:57:55.623Z,1.77
2022-08-18T02:00:38.758Z,1.80
2022-08-18T02:03:21.851Z,2.13
2022-08-18T02:06:09.843Z,1.90
2022-08-18T02:08:53.929Z,2.05
2022-08-18T02:11:37.143Z,1.85
2022-08-18T02:14:26.871Z,2.10
2022-08-18T02:17:12.663Z,2.13
2022-08-18T02:19:56.167Z,2.22
2022-08-18T02:22:39.470Z,2.20
2022-08-18T02:25:23.249Z,2.00
2022-08-18T02:28:06.909Z,2.50
2022-08-18T02:30:51.338Z,2.30
2022-08-18T02:33:34.961Z,2.13
2022-08-18T02:36:18.278Z,2.72
2022-08-18T02:39:01.306Z,2.47
2022-08-18T02:41:44.762Z,3.20
2022-08-18T02:44:27.819Z,2.42
2022-08-18T02:47:12.385Z,2.15
2022-08-18T02:49:55.468Z,3.20
2022-08-18T02:52:40.488Z,3.60
2022-08-18T02:55:26.716Z,3.63
2022-08-18T02:58:09.747Z,3.20
2022-08-18T03:00:52.872Z,3.67
2022-08-18T03:03:37.464Z,3.28
2022-08-18T03:06:21.844Z,2.58
2022-08-18T03:09:05.994Z,2.50
2022-08-18T03:11:49.418Z,2.40
2022-08-18T03:14:32.529Z,2.22
2022-08-18T03:17:15.943Z,2.10
2022-08-18T03:20:00.957Z,2.28
2022-08-18T03:22:45.716Z,2.13
2022-08-18T03:25:28.763Z,1.85
2022-08-18T03:28:12.290Z,2.90
2022-08-18T03:30:55.569Z,2.92
2022-08-18T03:33:39.261Z,2.50
2022-08-18T03:36:26.198Z,3.30
2022-08-18T03:39:11.804Z,3.63
2022-08-18T03:42:01.139Z,2.97
2022-08-18T03:44:44.876Z,2.70
2022-08-18T03:47:28.329Z,2.50
2022-08-18T03:50:14.101Z,2.45
2022-08-18T03:52:59.655Z,2.50
2022-08-18T03:55:43.164Z,2.40
2022-08-18T03:58:26.272Z,2.30
2022-08-18T04:01:09.388Z,2.58
2022-08-18T04:03:56.645Z,2.90
2022-08-18T04:06:43.991Z,3.00
2022-08-18T04:09:31.046Z,2.75
2022-08-18T04:12:17.363Z,3.17
2022-08-18T04:15:00.683Z,2.75
2022-08-18T04:17:56.284Z,3.10
2022-08-18T04:20:59.144Z,2.80
2022-08-18T04:23:43.606Z,2.53
2022-08-18T04:26:28.863Z,3.55
2022-08-18T04:29:14.080Z,3.15
2022-08-18T04:31:57.393Z,2.70
2022-08-18T04:34:40.746Z,2.88
2022-08-18T04:37:23.830Z,2.72
2022-08-18T04:40:08.033Z,2.90
2022-08-18T04:42:52.622Z,2.65
2022-08-18T04:45:36.428Z,3.08
2022-08-18T04:48:19.505Z,2.90
2022-08-18T04:51:08.766Z,2.78
2022-08-18T04:53:50.985Z,3.60
2022-08-18T04:56:38.054Z,3.97
2022-08-18T04:59:22.485Z,4.10
2022-08-18T05:02:12.693Z,3.20
2022-08-18T05:04:57.807Z,3.05
2022-08-18T05:07:45.824Z,3.22
2022-08-18T05:10:29.098Z,5.15
2022-08-18T05:13:15.147Z,4.00
2022-08-18T05:16:16.663Z,3.50
2022-08-18T05:19:04.503Z,3.50
2022-08-18T05:21:52.173Z,4.15
2022-08-18T05:24:37.202Z,4.47
2022-08-18T05:27:21.414Z,4.90
2022-08-18T05:30:06.019Z,4.68
2022-08-18T05:32:50.809Z,4.75
2022-08-18T05:35:39.407Z,5.00
2022-08-18T05:38:33.517Z,4.72
2022-08-18T05:41:28.985Z,4.45
2022-08-18T05:44:15.908Z,4.53
2022-08-18T05:47:04.874Z,5.60
2022-08-18T05:49:50.270Z,4.18
2022-08-18T05:52:37.713Z,3.97
2022-08-18T05:55:47.791Z,3.20
2022-08-18T05:58:35.066Z,3.25
2022-08-18T06:01:22.211Z,3.40
2022-08-18T06:04:08.921Z,3.20
2022-08-18T06:06:55.121Z,3.28
2022-08-18T06:09:44.283Z,3.20
2022-08-18T06:12:33.463Z,2.90
2022-08-18T06:15:26.562Z,2.55
2022-08-18T06:18:27.097Z,2.72
2022-08-18T06:21:38.974Z,3.20
2022-08-18T06:24:32.591Z,3.10
2022-08-18T06:27:26.175Z,3.03
2022-08-18T06:30:16.210Z,3.13
2022-08-18T06:33:11.538Z,2.47
2022-08-18T06:36:02.790Z,2.90
2022-08-18T06:38:53.852Z,3.30
2022-08-18T06:41:43.899Z,2.95
2022-08-18T06:44:34.663Z,3.15
2022-08-18T06:47:28.499Z,3.28
2022-08-18T06:50:21.442Z,3.25
2022-08-18T06:53:07.397Z,3.55
2022-08-18T06:56:26.228Z,3.25
2022-08-18T06:59:24.903Z,2.65
2022-08-18T07:02:20.632Z,3.20
2022-08-18T07:05:06.988Z,3.13
2022-08-18T07:08:15.590Z,3.40
2022-08-18T07:11:13.874Z,2.95
2022-08-18T07:14:15.447Z,3.60
2022-08-18T07:17:12.916Z,3.20
2022-08-18T07:19:58.705Z,2.83
2022-08-18T07:22:57.360Z,3.00
2022-08-18T07:25:45.655Z,3.28
2022-08-18T07:28:31.114Z,3.42
2022-08-18T07:31:25.949Z,3.88
2022-08-18T07:34:14.217Z,3.75
2022-08-18T07:37:09.095Z,3.22
2022-08-18T07:39:58.146Z,3.85
2022-08-18T07:43:00.780Z,3.78
2022-08-18T07:45:47.419Z,3.92
2022-08-18T07:48:40.170Z,4.32
2022-08-18T07:51:33.843Z,4.50
2022-08-18T07:54:55.082Z,4.10
2022-08-18T07:57:47.811Z,3.83
2022-08-18T08:00:57.691Z,3.85
2022-08-18T08:03:46.065Z,3.92
2022-08-18T08:06:40.142Z,3.78
2022-08-18T08:09:30.922Z,4.45
2022-08-18T08:12:24.390Z,4.25
2022-08-18T08:15:18.721Z,4.75
2022-08-18T08:18:22.562Z,5.47
2022-08-18T08:21:10.960Z,4.53
2022-08-18T08:24:00.229Z,5.05
2022-08-18T08:26:53.843Z,5.45
2022-08-18T08:29:50.035Z,6.70
2022-08-18T08:32:35.852Z,5.20
2022-08-18T08:35:49.504Z,4.50
2022-08-18T08:38:42.881Z,4.60
2022-08-18T08:41:37.529Z,3.78
2022-08-18T08:44:26.552Z,3.72
2022-08-18T08:47:17.598Z,4.43
2022-08-18T08:50:13.184Z,4.70
2022-08-18T08:53:00.643Z,3.80
2022-08-18T08:55:49.404Z,4.00
2022-08-18T08:58:40.816Z,3.85
2022-08-18T09:01:31.512Z,5.25
2022-08-18T09:04:31.479Z,4.20
2022-08-18T09:07:29.697Z,4.03
2022-08-18T09:10:44.754Z,4.35
2022-08-18T09:13:55.244Z,4.53
2022-08-18T09:16:50.442Z,4.30
2022-08-18T09:19:53.343Z,4.57
2022-08-18T09:22:48.411Z,4.32
2022-08-18T09:25:45.230Z,4.50
2022-08-18T09:28:56.463Z,4.57
2022-08-18T09:31:43.826Z,4.97
2022-08-18T09:38:12.875Z,4.32
2022-08-18T09:41:19.972Z,4.75
2022-08-18T09:48:08.731Z,4.22
2022-08-18T09:51:17.525Z,4.53
2022-08-18T09:54:21.402Z,4.40
2022-08-18T09:57:19.545Z,3.90
2022-08-18T10:00:30.485Z,4.35
2022-08-18T10:03:26.439Z,4.25
2022-08-18T10:06:20.811Z,4.28
2022-08-18T10:09:35.986Z,3.42
2022-08-18T10:12:51.589Z,4.03
2022-08-18T10:15:47.812Z,3.60
2022-08-18T10:18:59.253Z,3.92
2022-08-18T10:22:09.680Z,3.70
2022-08-18T10:24:57.298Z,4.07
2022-08-18T10:27:54.245Z,3.58
2022-08-18T10:31:10.083Z,3.60
2022-08-18T10:34:24.527Z,3.28
2022-08-18T10:37:16.925Z,3.45
2022-08-18T10:40:06.042Z,3.47
2022-08-18T10:42:54.429Z,2.78
2022-08-18T10:45:59.409Z,2.90
2022-08-18T10:49:04.463Z,3.10
2022-08-18T10:52:24.418Z,3.03
2022-08-18T10:55:48.178Z,2.92
2022-08-18T10:58:49.155Z,3.00
2022-08-18T11:01:48.671Z,2.85
2022-08-18T11:04:38.750Z,2.97
2022-08-18T11:07:24.765Z,3.05
2022-08-18T11:10:29.684Z,2.85
2022-08-18T11:13:21.764Z,2.70
2022-08-18T11:16:15.375Z,2.70
2022-08-18T11:19:06.968Z,3.30
2022-08-18T11:21:53.717Z,2.45
2022-08-18T11:24:44.707Z,2.80
2022-08-18T11:27:31.830Z,3.42
2022-08-18T11:30:15.569Z,2.15
2022-08-18T11:33:02.919Z,2.47
2022-08-18T11:35:48.810Z,2.30
2022-08-18T11:38:33.707Z,2.30
2022-08-18T11:41:20.414Z,2.47
2022-08-18T11:44:07.336Z,2.25
2022-08-18T11:46:52.182Z,2.50
2022-08-18T11:49:38.405Z,2.20
2022-08-18T11:52:29.618Z,2.50
2022-08-18T11:58:12.569Z,1.98
2022-08-18T12:01:01.635Z,2.60
2022-08-18T12:03:49.566Z,2.30
2022-08-18T12:06:33.708Z,2.63
2022-08-18T12:09:30.605Z,2.80
2022-08-18T12:12:28.156Z,2.38
2022-08-18T12:15:29.581Z,2.42
2022-08-18T12:18:29.778Z,2.05
2022-08-18T12:21:13.584Z,2.20
2022-08-18T12:23:56.773Z,2.08
2022-08-18T12:26:47.416Z,1.98
2022-08-18T12:32:49.030Z,2.10
2022-08-18T12:35:41.927Z,2.38
2022-08-18T12:38:25.284Z,2.35
2022-08-18T12:41:11.873Z,2.10
2022-08-18T12:43:58.641Z,2.50
2022-08-18T12:46:44.058Z,2.28
2022-08-18T12:49:28.156Z,2.25
2022-08-18T12:52:12.964Z,2.38
2022-08-18T12:54:57.264Z,2.40
2022-08-18T12:57:52.364Z,2.70
2022-08-18T13:00:37.048Z,2.80
2022-08-18T13:03:21.583Z,2.30
2022-08-18T13:06:06.045Z,2.63
2022-08-18T13:08:50.129Z,3.20
2022-08-18T13:14:17.554Z,2.88
2022-08-18T13:17:00.754Z,3.67
2022-08-18T13:19:45.892Z,2.50
2022-08-18T13:25:32.509Z,2.90
2022-08-18T13:28:21.124Z,2.60
2022-08-18T13:31:05.336Z,2.78
2022-08-18T13:33:56.916Z,2.65
2022-08-18T13:36:48.527Z,2.30
2022-08-18T13:39:34.541Z,2.60
2022-08-18T13:42:26.765Z,2.78
2022-08-18T13:45:24.835Z,3.20
2022-08-18T13:48:09.309Z,2.53
2022-08-18T13:50:55.721Z,2.73
2022-08-18T13:53:51.105Z,2.63
2022-08-18T13:56:42.372Z,2.00
2022-08-18T13:59:35.022Z,2.63
2022-08-18T14:02:18.241Z,2.47
2022-08-18T14:05:01.654Z,3.08
2022-08-18T14:07:46.594Z,2.65
2022-08-18T14:10:32.138Z,2.80
2022-08-18T14:13:20.547Z,2.60
2022-08-18T14:16:08.634Z,2.38
2022-08-18T14:19:11.297Z,2.70
2022-08-18T14:22:13.229Z,2.40
2022-08-18T14:25:13.729Z,2.47
2022-08-18T14:27:59.043Z,2.75
2022-08-18T14:30:50.859Z,2.65
2022-08-18T14:33:51.842Z,2.63
2022-08-18T14:36:36.806Z,2.65
2022-08-18T14:39:19.864Z,2.50
2022-08-18T14:42:03.215Z,2.78
2022-08-18T14:44:48.104Z,2.58
2022-08-18T14:47:31.482Z,2.83
2022-08-18T14:50:15.215Z,2.17
2022-08-18T14:53:02.495Z,2.58
2022-08-18T14:55:45.578Z,2.70
2022-08-18T14:58:33.713Z,3.20
2022-08-18T15:01:18.528Z,3.22
2022-08-18T15:04:18.547Z,3.08
2022-08-18T15:07:02.946Z,2.80
2022-08-18T15:10:15.139Z,2.90
2022-08-18T15:12:57.801Z,3.75
2022-08-18T15:18:36.200Z,3.33
2022-08-18T15:21:38.945Z,3.22
2022-08-18T15:24:39.647Z,2.97
2022-08-18T15:27:42.773Z,3.90
2022-08-18T15:30:25.970Z,3.80
2022-08-18T15:33:10.481Z,3.72
2022-08-18T15:36:01.296Z,3.83
2022-08-18T15:38:44.470Z,3.65
2022-08-18T15:41:34.140Z,3.13
2022-08-18T15:44:19.384Z,3.15
2022-08-18T15:49:47.708Z,2.90
2022-08-18T15:52:32.890Z,2.90
2022-08-18T15:55:17.966Z,2.70
2022-08-18T15:58:02.203Z,3.30
2022-08-18T16:00:47.930Z,3.10
2022-08-18T16:03:31.713Z,2.85
2022-08-18T16:06:16.527Z,3.00
2022-08-18T16:09:06.006Z,2.85
2022-08-18T16:11:49.281Z,2.75
2022-08-18T16:14:32.356Z,2.60
2022-08-18T16:17:23.695Z,2.95
2022-08-18T16:20:08.460Z,3.25
2022-08-18T16:22:52.480Z,3.30
2022-08-18T16:25:39.168Z,3.33
2022-08-18T16:28:34.847Z,3.58
2022-08-18T16:31:20.073Z,3.10
2022-08-18T16:34:03.248Z,2.65
2022-08-18T16:36:46.296Z,2.70
2022-08-18T16:39:33.704Z,3.40
2022-08-18T16:42:18.258Z,3.10
2022-08-18T16:45:01.561Z,3.33
2022-08-18T16:47:44.600Z,3.22
2022-08-18T16:50:28.123Z,3.50
2022-08-18T16:53:11.231Z,3.42
2022-08-18T16:55:54.365Z,3.65
2022-08-18T16:58:56.297Z,3.60
2022-08-18T17:01:57.429Z,3.42
2022-08-18T17:04:41.649Z,3.35
2022-08-18T17:10:09.445Z,4.10
2022-08-18T17:12:52.594Z,4.38
2022-08-18T17:15:37.037Z,5.72
2022-08-18T17:18:20.986Z,4.80
2022-08-18T17:21:05.065Z,4.00
2022-08-18T17:23:49.280Z,4.63
2022-08-18T17:26:43.526Z,5.00
2022-08-18T17:29:33.251Z,4.90
2022-08-18T17:32:23.641Z,4.55
2022-08-18T17:35:09.491Z,4.43
2022-08-18T17:37:59.729Z,4.43
2022-08-18T17:40:46.047Z,5.70
2022-08-18T17:43:32.891Z,5.22
2022-08-18T17:46:25.968Z,4.30
2022-08-18T17:49:15.397Z,4.30
2022-08-18T17:51:57.694Z,4.90
2022-08-18T17:54:49.404Z,4.38
2022-08-18T17:57:38.117Z,3.90
2022-08-18T18:00:22.268Z,3.75
2022-08-18T18:03:06.015Z,3.65
2022-08-18T18:05:59.167Z,4.15
2022-08-18T18:08:55.433Z,4.28
2022-08-18T18:11:41.328Z,5.30
2022-08-18T18:14:27.820Z,5.60
2022-08-18T18:17:16.424Z,4.20
2022-08-18T18:20:15.623Z,4.65
2022-08-18T18:23:17.663Z,4.68
2022-08-18T18:26:00.748Z,4.45
2022-08-18T18:28:43.767Z,3.70
2022-08-18T18:31:29.255Z,3.50
2022-08-18T18:34:23.487Z,3.42
2022-08-18T18:37:26.890Z,3.17
2022-08-18T18:40:22.400Z,3.50
2022-08-18T18:43:24.063Z,3.38
2022-08-18T18:46:30.299Z,2.72
2022-08-18T18:49:20.133Z,3.25
2022-08-18T18:52:10.912Z,3.30
2022-08-18T18:55:02.541Z,3.40
2022-08-18T18:58:02.892Z,2.83
2022-08-18T19:00:54.119Z,2.53
2022-08-18T19:03:47.821Z,2.95
2022-08-18T19:06:37.273Z,2.88
2022-08-18T19:09:25.262Z,3.03
2022-08-18T19:12:17.457Z,2.90
2022-08-18T19:15:08.426Z,2.63
2022-08-18T19:17:57.314Z,2.60
2022-08-18T19:20:43.849Z,2.30
2022-08-18T19:23:55.312Z,2.10
2022-08-18T19:26:42.498Z,2.28
2022-08-18T19:29:29.952Z,2.17
2022-08-18T19:32:19.581Z,2.30
2022-08-18T19:35:10.471Z,2.38
2022-08-18T19:38:10.349Z,2.10
2022-08-18T19:41:00.442Z,2.10
2022-08-18T19:43:56.771Z,2.00
2022-08-18T19:46:45.300Z,1.85
2022-08-18T19:49:36.138Z,1.85
2022-08-18T19:52:46.076Z,2.33
2022-08-18T19:55:40.467Z,1.98
2022-08-18T19:58:49.157Z,2.03
2022-08-18T20:01:55.254Z,2.40
2022-08-18T20:04:52.924Z,3.15
2022-08-18T20:07:56.392Z,2.53
2022-08-18T20:11:09.228Z,2.03
2022-08-18T20:13:56.846Z,2.35
2022-08-18T20:16:44.880Z,2.35
2022-08-18T20:20:13.548Z,1.85
2022-08-18T20:23:00.218Z,2.30
2022-08-18T20:25:45.068Z,2.22
2022-08-18T20:31:18.872Z,1.95
2022-08-18T20:34:14.147Z,2.40
2022-08-18T20:36:59.238Z,2.28
2022-08-18T20:42:57.387Z,1.90
2022-08-18T20:45:56.599Z,2.58
2022-08-18T20:49:05.975Z,2.67
2022-08-18T20:51:55.640Z,3.00
2022-08-18T20:54:58.242Z,3.03
2022-08-18T20:57:41.884Z,2.45
2022-08-18T21:00:27.303Z,2.55
2022-08-18T21:03:14.773Z,2.70
2022-08-18T21:06:00.393Z,2.33
2022-08-18T21:08:51.108Z,2.55
2022-08-18T21:11:42.984Z,2.70
2022-08-18T21:14:30.037Z,2.30
2022-08-18T21:17:15.416Z,2.60
2022-08-18T21:20:04.489Z,2.80
2022-08-18T21:22:47.985Z,2.80
2022-08-18T21:25:32.748Z,2.80
2022-08-18T21:34:08.531Z,2.05
2022-08-18T21:36:54.721Z,2.38
2022-08-18T21:39:52.293Z,2.70
2022-08-18T21:42:43.380Z,2.95
2022-08-18T21:45:29.780Z,2.67
2022-08-18T21:48:13.052Z,2.80
2022-08-18T21:51:01.176Z,3.45
2022-08-18T21:53:44.602Z,3.22
2022-08-18T21:56:31.437Z,3.10
2022-08-18T21:59:17.846Z,3.05
2022-08-18T22:02:02.338Z,3.70
2022-08-18T22:04:48.426Z,3.03
2022-08-18T22:07:35.623Z,3.65
2022-08-18T22:10:46.206Z,3.85
2022-08-18T22:13:47.698Z,4.00
2022-08-18T22:16:36.230Z,3.17
2022-08-18T22:19:27.702Z,4.45
2022-08-18T22:22:24.696Z,3.83
2022-08-18T22:25:11.663Z,3.58
2022-08-18T22:27:57.032Z,4.13
2022-08-18T22:30:42.059Z,4.72
2022-08-18T22:33:25.161Z,4.75
2022-08-18T22:36:11.499Z,3.70
2022-08-18T22:38:55.418Z,5.10
2022-08-18T22:41:39.264Z,4.53
2022-08-18T22:44:23.213Z,4.75
2022-08-18T22:47:07.604Z,4.53
2022-08-18T22:49:50.788Z,4.00
2022-08-18T22:52:38.159Z,5.30
2022-08-18T22:55:22.064Z,5.13
2022-08-18T22:58:07.281Z,5.72
2022-08-18T23:00:52.434Z,3.90
2022-08-18T23:03:44.277Z,4.72
2022-08-18T23:06:28.628Z,4.70
2022-08-18T23:09:13.025Z,4.50
2022-08-18T23:11:57.849Z,4.60
2022-08-18T23:14:41.462Z,4.38
2022-08-18T23:17:24.566Z,5.97
2022-08-18T23:20:11.442Z,5.38
2022-08-18T23:22:54.658Z,4.47
2022-08-18T23:25:39.546Z,3.88
2022-08-18T23:28:23.166Z,4.47
2022-08-18T23:31:06.575Z,4.43
2022-08-18T23:33:49.615Z,4.68
2022-08-18T23:36:33.912Z,5.68
2022-08-18T23:39:17.006Z,6.35
2022-08-18T23:42:02.301Z,8.30
2022-08-18T23:44:45.681Z,8.60
2022-08-18T23:47:29.828Z,5.55
2022-08-18T23:50:13.015Z,5.45
2022-08-18T23:52:57.651Z,5.22
2022-08-18T23:55:41.020Z,4.75
2022-08-18T23:58:25.456Z,4.97
